Time;durP1;ratioP1;P1;durP2;ratioP2;P2;SDS_P1;SDS_P2;PMS_P1;PMS_P2;Temp;Humidity;BMP_temperature;BMP_pressure;BME280_temperature;BME280_humidity;BME280_pressure;Samples;Min_cycle;Max_cycle;Signal;HPM_P1;HPM_P2
2023/08/09 00:00:48;;;;;;;0.55;0.55;;;;;;;28.84;34.77;99696.97;7393241;19;20022;-84
2023/08/09 00:03:15;;;;;;;0.47;0.47;;;;;;;28.42;34.70;99696.69;7392798;19;20074;-84
2023/08/09 00:05:41;;;;;;;0.20;0.20;;;;;;;27.77;35.58;99691.06;7397074;19;20006;-84
2023/08/09 00:08:07;;;;;;;0.35;0.35;;;;;;;27.10;36.36;99687.97;7401669;19;20336;-84
2023/08/09 00:10:33;;;;;;;0.40;0.40;;;;;;;26.66;37.01;99702.28;7396259;19;20553;-83
2023/08/09 00:13:00;;;;;;;0.82;0.40;;;;;;;27.48;36.11;99704.56;7397610;19;20101;-84
2023/08/09 00:15:26;;;;;;;0.35;0.35;;;;;;;28.23;35.32;99696.72;7399883;19;20019;-84
2023/08/09 00:17:52;;;;;;;0.70;0.70;;;;;;;29.87;33.69;99695.63;7401585;19;20011;-84
2023/08/09 00:20:20;;;;;;;0.45;0.45;;;;;;;29.12;34.33;99687.50;7401406;19;20086;-84
2023/08/09 00:22:46;;;;;;;0.50;0.50;;;;;;;28.81;34.67;99695.31;7396336;19;20035;-84
2023/08/09 00:25:13;;;;;;;0.40;0.40;;;;;;;28.77;35.01;99705.72;7397803;19;20029;-84
2023/08/09 00:27:40;;;;;;;1.27;0.60;;;;;;;28.98;34.50;99717.28;7398858;19;20032;-85
2023/08/09 00:30:13;;;;;;;0.55;0.50;;;;;;;29.06;35.08;99729.34;7401412;19;20014;-84
2023/08/09 00:32:41;;;;;;;0.70;0.70;;;;;;;28.89;34.84;99721.69;7396191;19;20019;-84
2023/08/09 00:35:08;;;;;;;0.30;0.30;;;;;;;29.99;34.04;99720.16;7395867;19;20028;-84
2023/08/09 00:37:36;;;;;;;0.63;0.40;;;;;;;30.79;32.97;99706.81;7398246;19;20018;-84
2023/08/09 00:40:11;;;;;;;19.08;1.13;;;;;;;31.09;32.55;99700.13;7399424;19;20028;-84
2023/08/09 00:42:41;;;;;;;0.30;0.30;;;;;;;31.04;32.31;99709.88;7396825;19;20115;-84
2023/08/09 00:45:09;;;;;;;0.32;0.32;;;;;;;31.28;31.98;99710.66;7393438;19;20105;-84
2023/08/09 00:47:35;;;;;;;0.63;0.47;;;;;;;31.38;31.87;99702.66;7398232;19;20010;-84
2023/08/09 00:50:02;;;;;;;0.60;0.60;;;;;;;31.29;32.16;99710.06;7400845;19;20121;-84
2023/08/09 00:52:29;;;;;;;0.47;0.32;;;;;;;31.33;31.73;99712.41;7395870;19;20011;-82
2023/08/09 00:54:57;;;;;;;0.35;0.35;;;;;;;31.46;31.49;99725.47;7396627;19;20010;-85
2023/08/09 00:57:23;;;;;;;0.73;0.73;;;;;;;32.15;30.98;99734.03;7402384;19;20466;-84
2023/08/09 00:59:49;;;;;;;0.50;0.50;;;;;;;31.99;30.43;99721.53;7395690;19;20019;-84
2023/08/09 01:02:16;;;;;;;0.20;0.20;;;;;;;31.67;30.90;99725.31;7399567;19;20018;-84
2023/08/09 01:04:43;;;;;;;1.75;0.57;;;;;;;31.55;30.87;99721.72;7395484;19;20477;-84
2023/08/09 01:07:32;;;;;;;0.40;0.40;;;;;;;31.66;31.09;99706.56;7397468;19;20665;-84
2023/08/09 01:10:15;;;;;;;0.40;0.40;;;;;;;31.84;30.97;99701.88;7395767;19;20587;-84
2023/08/09 01:12:54;;;;;;;0.47;0.40;;;;;;;31.74;31.57;99702.03;7394294;19;20041;-84
2023/08/09 01:15:22;;;;;;;0.20;0.20;;;;;;;31.77;31.15;99715.16;7399567;19;20018;-84
2023/08/09 01:17:52;;;;;;;0.40;0.40;;;;;;;32.09;31.24;99705.63;7395577;19;20524;-84
2023/08/09 01:20:20;;;;;;;0.20;0.20;;;;;;;32.25;31.45;99711.56;7394166;19;20019;-84
2023/08/09 01:22:56;;;;;;;2.28;1.15;;;;;;;33.10;30.45;99702.03;7395190;19;20469;-84
2023/08/09 01:25:22;;;;;;;4.78;0.45;;;;;;;33.01;30.66;99700.13;7394032;19;20098;-84
2023/08/09 01:27:48;;;;;;;0.25;0.25;;;;;;;33.02;30.47;99698.72;7395316;19;20011;-84
2023/08/09 01:30:15;;;;;;;0.55;0.40;;;;;;;33.17;30.28;99698.84;7394721;19;20042;-84
2023/08/09 01:32:42;;;;;;;0.32;0.32;;;;;;;33.27;30.18;99701.53;7394024;19;20022;-84
2023/08/09 01:35:09;;;;;;;0.40;0.40;;;;;;;33.14;30.04;99717.44;7395128;19;20015;-84
2023/08/09 01:37:41;;;;;;;0.65;0.43;;;;;;;32.84;30.10;99725.13;7396249;19;20023;-84
2023/08/09 01:40:10;;;;;;;0.68;0.68;;;;;;;32.77;30.32;99720.41;7393817;19;20018;-84
2023/08/09 01:42:38;;;;;;;0.20;0.20;;;;;;;33.27;29.77;99724.63;7394670;19;20074;-84
2023/08/09 01:45:06;;;;;;;1.30;0.52;;;;;;;32.50;30.03;99720.28;7393283;19;20345;-84
2023/08/09 01:47:32;;;;;;;0.35;0.35;;;;;;;32.94;29.63;99709.78;7395311;19;20022;-84
2023/08/09 01:49:59;;;;;;;0.43;0.43;;;;;;;32.88;29.73;99707.28;7397507;19;20002;-84
2023/08/09 01:52:25;;;;;;;0.30;0.30;;;;;;;32.50;30.14;99711.66;7394008;19;20472;-84
2023/08/09 01:54:51;;;;;;;0.50;0.50;;;;;;;32.49;29.67;99723.78;7393892;19;20007;-85
2023/08/09 01:57:17;;;;;;;0.30;0.30;;;;;;;31.32;30.67;99720.28;7396764;19;20496;-84
2023/08/09 01:59:44;;;;;;;0.30;0.30;;;;;;;30.78;30.97;99728.31;7392954;19;20034;-84
2023/08/09 02:02:11;;;;;;;0.77;0.30;;;;;;;30.81;31.26;99741.44;7395959;19;20032;-84
2023/08/09 02:04:37;;;;;;;1.00;0.68;;;;;;;30.34;31.56;99734.03;7393027;19;20031;-86
2023/08/09 02:07:04;;;;;;;0.60;0.60;;;;;;;29.83;32.05;99730.56;7398642;19;20011;-87
2023/08/09 02:09:30;;;;;;;0.30;0.30;;;;;;;29.56;32.32;99724.31;7394796;19;20044;-85
2023/08/09 02:11:57;;;;;;;0.20;0.20;;;;;;;29.18;32.86;99741.72;7393431;19;20032;-85
2023/08/09 02:14:24;;;;;;;0.82;0.82;;;;;;;29.25;32.69;99740.78;7398864;19;20353;-84
2023/08/09 02:16:50;;;;;;;0.38;0.38;;;;;;;30.78;31.28;99731.19;7393765;19;20041;-84
2023/08/09 02:19:16;;;;;;;0.40;0.40;;;;;;;30.21;31.36;99734.53;7393712;19;20390;-84
2023/08/09 02:21:42;;;;;;;0.40;0.40;;;;;;;31.06;31.19;99740.91;7391864;19;20031;-84
2023/08/09 02:24:08;;;;;;;0.40;0.30;;;;;;;31.70;30.33;99739.25;7391267;19;20014;-85
2023/08/09 02:26:35;;;;;;;0.65;0.40;;;;;;;32.44;29.48;99740.09;7393682;19;20503;-85
2023/08/09 02:29:01;;;;;;;0.30;0.30;;;;;;;32.29;29.63;99739.91;7390981;19;20410;-84
2023/08/09 02:31:27;;;;;;;0.55;0.55;;;;;;;33.08;28.78;99745.22;7390726;19;20041;-85
2023/08/09 02:33:55;;;;;;;0.45;0.43;;;;;;;32.62;29.02;99744.06;7393030;19;20373;-84
2023/08/09 02:36:22;;;;;;;0.30;0.30;;;;;;;32.74;29.12;99750.53;7396912;19;20026;-85
2023/08/09 02:38:48;;;;;;;0.47;0.47;;;;;;;33.16;28.61;99748.56;7396621;19;20027;-83
2023/08/09 02:41:14;;;;;;;1.88;0.50;;;;;;;32.88;28.78;99748.44;7393774;19;20029;-84
2023/08/09 02:43:40;;;;;;;0.30;0.30;;;;;;;32.68;29.08;99753.06;7392795;19;20011;-85
2023/08/09 02:46:06;;;;;;;0.35;0.35;;;;;;;32.79;28.79;99749.38;7391111;19;20011;-85
2023/08/09 02:48:32;;;;;;;0.65;0.65;;;;;;;32.70;28.53;99753.16;7390050;19;20452;-85
2023/08/09 02:50:58;;;;;;;0.93;0.32;;;;;;;33.12;28.12;99751.22;7396173;19;20011;-85
2023/08/09 02:53:55;;;;;;;0.57;0.57;;;;;;;32.71;29.15;99760.44;7389491;19;20064;-85
2023/08/09 02:56:22;;;;;;;0.40;0.40;;;;;;;32.07;28.78;99762.38;7393674;19;20015;-85
2023/08/09 02:58:48;;;;;;;0.30;0.30;;;;;;;31.57;29.67;99765.03;7392832;19;20011;-84
2023/08/09 03:01:14;;;;;;;0.43;0.43;;;;;;;31.13;29.98;99763.69;7392511;19;20113;-85
2023/08/09 03:03:40;;;;;;;2.05;1.02;;;;;;;31.10;29.97;99769.94;7391071;19;20366;-85
2023/08/09 03:06:07;;;;;;;0.25;0.25;;;;;;;31.04;29.79;99773.19;7393233;19;20423;-85
2023/08/09 03:08:33;;;;;;;1.00;0.30;;;;;;;31.38;29.90;99772.47;7390710;19;20009;-85
2023/08/09 03:10:59;;;;;;;0.43;0.40;;;;;;;31.22;29.52;99771.47;7390303;19;20564;-85
2023/08/09 03:13:25;;;;;;;0.75;0.43;;;;;;;31.14;30.04;99770.97;7394936;19;20010;-85
2023/08/09 03:15:52;;;;;;;0.35;0.35;;;;;;;31.48;29.49;99774.53;7392051;19;20026;-85
2023/08/09 03:18:19;;;;;;;1.13;0.95;;;;;;;30.79;30.26;99770.06;7391192;19;20695;-85
2023/08/09 03:20:45;;;;;;;0.50;0.50;;;;;;;30.91;30.05;99768.00;7393232;19;20023;-85
2023/08/09 03:23:12;;;;;;;0.30;0.30;;;;;;;30.35;30.30;99772.88;7392959;19;20010;-85
2023/08/09 03:25:40;;;;;;;0.90;0.90;;;;;;;30.66;30.35;99764.91;7389224;19;20082;-85
2023/08/09 03:28:07;;;;;;;0.22;0.22;;;;;;;31.42;29.59;99778.53;7390982;19;20081;-85
2023/08/09 03:30:33;;;;;;;0.30;0.30;;;;;;;30.13;30.77;99774.97;7390939;19;20021;-85
2023/08/09 03:33:00;;;;;;;0.17;0.17;;;;;;;29.71;30.76;99775.66;7393658;19;20030;-85
2023/08/09 03:35:27;;;;;;;0.47;0.47;;;;;;;29.27;31.39;99795.44;7391253;19;20022;-85
2023/08/09 03:37:53;;;;;;;0.30;0.30;;;;;;;29.05;31.54;99793.81;7391771;19;20015;-85
2023/08/09 03:40:19;;;;;;;0.40;0.40;;;;;;;28.93;31.25;99798.66;7391645;19;20018;-85
2023/08/09 03:42:45;;;;;;;0.30;0.30;;;;;;;28.69;31.70;99785.41;7390804;19;20334;-85
2023/08/09 03:45:12;;;;;;;0.40;0.40;;;;;;;28.68;31.69;99786.75;7392032;19;20037;-85
2023/08/09 03:47:39;;;;;;;8.00;1.08;;;;;;;28.57;32.08;99785.25;7390585;19;20693;-85
2023/08/09 03:50:07;;;;;;;2.50;0.68;;;;;;;29.63;31.41;99792.28;7390988;19;20041;-86
2023/08/09 03:52:34;;;;;;;0.60;0.60;;;;;;;30.13;30.84;99802.94;7390755;19;20464;-86
2023/08/09 03:55:00;;;;;;;1.95;0.63;;;;;;;30.33;30.41;99799.34;7390719;19;20018;-86
2023/08/09 03:57:27;;;;;;;0.35;0.28;;;;;;;30.39;30.02;99805.50;7395368;19;20014;-86
2023/08/09 03:59:54;;;;;;;0.50;0.50;;;;;;;31.00;29.81;99806.69;7391321;19;20037;-85
2023/08/09 04:02:22;;;;;;;0.90;0.90;;;;;;;30.63;29.70;99803.50;7390226;19;20019;-85
2023/08/09 04:04:49;;;;;;;0.38;0.38;;;;;;;30.54;30.26;99807.22;7389968;19;20019;-85
2023/08/09 04:07:15;;;;;;;0.32;0.32;;;;;;;30.31;30.18;99812.84;7394181;19;20453;-85
2023/08/09 04:09:41;;;;;;;0.40;0.40;;;;;;;30.36;30.12;99811.75;7394937;19;20026;-85
2023/08/09 04:12:08;;;;;;;2.28;0.70;;;;;;;30.36;29.90;99814.63;7392678;19;20034;-85
2023/08/09 04:14:34;;;;;;;0.60;0.60;;;;;;;29.60;30.69;99815.72;7389924;19;20019;-85
2023/08/09 04:17:00;;;;;;;0.45;0.45;;;;;;;30.84;29.35;99817.84;7389616;19;20010;-85
2023/08/09 04:19:26;;;;;;;0.20;0.20;;;;;;;30.33;29.98;99828.09;7391277;19;20018;-86
2023/08/09 04:21:53;;;;;;;0.30;0.30;;;;;;;30.86;29.65;99831.63;7394982;19;20014;-87
2023/08/09 04:24:19;;;;;;;0.50;0.43;;;;;;;30.80;29.42;99834.13;7388791;19;20022;-86
2023/08/09 04:26:46;;;;;;;1.35;0.68;;;;;;;30.82;29.38;99826.34;7388821;19;20015;-86
2023/08/09 04:29:12;;;;;;;0.57;0.57;;;;;;;30.86;29.46;99823.78;7390817;19;20054;-86
2023/08/09 04:31:38;;;;;;;0.40;0.40;;;;;;;31.14;29.51;99822.75;7392167;19;20011;-85
2023/08/09 04:34:04;;;;;;;0.40;0.32;;;;;;;30.85;29.32;99830.88;7388479;19;20090;-86
2023/08/09 04:36:31;;;;;;;0.85;0.40;;;;;;;30.93;29.50;99822.78;7393162;19;20023;-85
2023/08/09 04:38:58;;;;;;;0.50;0.45;;;;;;;31.48;28.91;99827.13;7394350;19;20006;-86
2023/08/09 04:41:24;;;;;;;0.63;0.63;;;;;;;30.76;29.51;99828.06;7391985;19;20374;-86
2023/08/09 04:43:50;;;;;;;0.30;0.30;;;;;;;30.94;29.32;99824.31;7388471;19;20023;-86
2023/08/09 04:46:17;;;;;;;0.50;0.50;;;;;;;31.32;28.61;99829.69;7388328;19;20022;-87
2023/08/09 04:48:43;;;;;;;0.35;0.35;;;;;;;31.39;28.69;99831.56;7389329;19;20015;-85
2023/08/09 04:51:10;;;;;;;0.63;0.63;;;;;;;31.62;28.79;99824.38;7395108;19;20011;-86
2023/08/09 04:53:37;;;;;;;0.25;0.25;;;;;;;30.98;29.38;99821.69;7393042;19;20077;-85
2023/08/09 04:56:03;;;;;;;0.60;0.60;;;;;;;29.35;30.86;99827.56;7396511;19;20014;-84
2023/08/09 04:58:30;;;;;;;4.78;0.50;;;;;;;28.69;31.35;99822.66;7394722;19;20372;-83
2023/08/09 05:00:57;;;;;;;0.68;0.40;;;;;;;28.78;31.43;99816.19;7397753;19;20078;-96
2023/08/09 05:03:23;;;;;;;1.05;0.80;;;;;;;28.85;31.60;99815.25;7396816;19;20015;-90
2023/08/09 05:05:50;;;;;;;0.43;0.43;;;;;;;28.38;31.78;99834.69;7394646;19;20022;-89
2023/08/09 05:08:16;;;;;;;0.40;0.40;;;;;;;25.18;35.44;99838.69;7396867;19;20015;-93
2023/08/09 05:10:42;;;;;;;0.55;0.55;;;;;;;25.21;35.33;99846.84;7397419;19;20014;-86
2023/08/09 05:13:08;;;;;;;0.52;0.52;;;;;;;24.55;36.27;99833.03;7394515;19;20493;-87
2023/08/09 05:15:34;;;;;;;0.30;0.30;;;;;;;24.34;36.71;99837.44;7395234;19;20338;-89
2023/08/09 05:18:01;;;;;;;1.10;0.70;;;;;;;25.80;35.54;99837.75;7396951;19;20513;-85
2023/08/09 05:20:27;;;;;;;0.88;0.88;;;;;;;25.09;36.01;99833.59;7399641;19;20052;-88
2023/08/09 05:22:53;;;;;;;0.32;0.32;;;;;;;25.25;36.20;99835.03;7394296;19;20018;-88
2023/08/09 05:25:19;;;;;;;0.68;0.68;;;;;;;27.82;33.35;99833.16;7395545;19;20432;-84
2023/08/09 05:27:47;;;;;;;0.50;0.50;;;;;;;25.73;35.81;99853.56;7396439;19;20560;-84
2023/08/09 05:30:15;;;;;;;0.75;0.52;;;;;;;23.86;38.10;99856.41;7394656;19;20025;-84
2023/08/09 05:32:41;;;;;;;0.10;0.10;;;;;;;24.84;37.17;99862.00;7393988;19;20011;-84
2023/08/09 05:35:08;;;;;;;0.60;0.60;;;;;;;26.08;35.83;99868.72;7391525;19;20015;-83
2023/08/09 05:37:35;;;;;;;0.22;0.22;;;;;;;26.87;34.87;99864.75;7394150;19;20021;-84
2023/08/09 05:40:01;;;;;;;5.93;0.55;;;;;;;27.94;33.91;99861.97;7392217;19;20106;-84
2023/08/09 05:42:27;;;;;;;0.50;0.50;;;;;;;27.24;34.20;99874.22;7391247;19;20583;-83
2023/08/09 05:44:54;;;;;;;1.05;0.50;;;;;;;27.18;34.51;99865.16;7393305;19;20440;-84
2023/08/09 05:47:20;;;;;;;3.75;0.68;;;;;;;24.45;37.48;99859.81;7393570;19;20509;-84
2023/08/09 05:49:46;;;;;;;0.93;0.38;;;;;;;26.35;36.12;99863.19;7394336;19;20087;-84
2023/08/09 05:52:12;;;;;;;0.40;0.40;;;;;;;26.45;35.54;99870.50;7393639;19;20014;-84
2023/08/09 05:54:38;;;;;;;0.28;0.28;;;;;;;27.74;34.54;99859.00;7395001;19;20019;-84
2023/08/09 05:57:04;;;;;;;0.35;0.35;;;;;;;25.87;36.76;99865.47;7397079;19;20044;-84
2023/08/09 05:59:30;;;;;;;0.77;0.50;;;;;;;26.19;36.67;99859.72;7394771;19;20025;-84
2023/08/09 06:01:56;;;;;;;3.40;0.93;;;;;;;25.72;36.99;99859.88;7390680;19;20014;-83
2023/08/09 06:04:24;;;;;;;0.50;0.50;;;;;;;25.28;38.13;99860.28;7391055;19;20779;-84
2023/08/09 06:06:50;;;;;;;5.78;0.65;;;;;;;25.00;38.65;99871.25;7396494;19;20477;-84
2023/08/09 06:09:16;;;;;;;0.30;0.30;;;;;;;25.79;37.76;99884.75;7398571;19;20011;-84
2023/08/09 06:11:42;;;;;;;0.45;0.35;;;;;;;25.29;38.64;99876.09;7395476;19;20015;-84
2023/08/09 06:14:09;;;;;;;1.10;0.88;;;;;;;24.32;40.17;99868.56;7391313;19;20078;-83
2023/08/09 06:16:35;;;;;;;0.30;0.30;;;;;;;24.48;40.48;99875.72;7395549;19;20034;-84
2023/08/09 06:19:01;;;;;;;0.30;0.30;;;;;;;26.89;37.95;99868.53;7392238;19;20018;-84
2023/08/09 06:21:27;;;;;;;0.98;0.98;;;;;;;26.62;37.54;99867.66;7398206;19;20021;-83
2023/08/09 06:23:53;;;;;;;3.40;0.52;;;;;;;27.63;36.46;99867.41;7391490;19;20485;-83
2023/08/09 06:26:19;;;;;;;1.80;0.80;;;;;;;26.21;38.67;99868.44;7391518;19;20019;-84
2023/08/09 06:28:45;;;;;;;5.30;1.08;;;;;;;27.70;36.97;99870.16;7393535;19;20035;-84
2023/08/09 06:31:12;;;;;;;3.13;1.25;;;;;;;27.60;37.50;99877.16;7391924;19;20019;-85
2023/08/09 06:33:42;;;;;;;1.15;0.95;;;;;;;31.06;33.85;99881.88;7396535;19;20011;-84
2023/08/09 06:36:09;;;;;;;0.47;0.47;;;;;;;27.74;37.08;99881.16;7394555;19;20025;-84
2023/08/09 06:38:35;;;;;;;1.65;0.80;;;;;;;27.89;37.67;99875.22;7397582;19;20022;-83
2023/08/09 06:41:01;;;;;;;2.28;0.57;;;;;;;26.55;39.51;99891.34;7395214;19;20022;-84
2023/08/09 06:43:28;;;;;;;1.95;0.82;;;;;;;29.04;36.83;99889.81;7390725;19;20469;-84
2023/08/09 06:45:57;;;;;;;0.68;0.68;;;;;;;28.94;36.88;99883.31;7391980;19;20018;-84
2023/08/09 06:48:23;;;;;;;0.50;0.43;;;;;;;30.76;35.46;99886.34;7392029;19;20014;-84
2023/08/09 06:50:50;;;;;;;1.05;0.95;;;;;;;28.94;36.83;99889.03;7396448;19;20035;-83
2023/08/09 06:53:16;;;;;;;2.00;1.35;;;;;;;28.11;38.28;99879.81;7400034;19;20010;-84
2023/08/09 06:55:43;;;;;;;1.67;0.98;;;;;;;28.93;37.82;99871.09;7401921;19;20018;-83
2023/08/09 06:58:09;;;;;;;5.65;1.98;;;;;;;27.58;39.26;99877.78;7394461;19;20022;-84
2023/08/09 07:00:37;;;;;;;1.95;0.82;;;;;;;27.15;40.23;99881.38;7395555;19;20019;-84
2023/08/09 07:03:03;;;;;;;1.08;0.40;;;;;;;27.80;40.07;99867.34;7391120;19;20500;-84
2023/08/09 07:05:33;;;;;;;6.22;1.25;;;;;;;29.42;37.95;99869.72;7391138;19;20085;-84
2023/08/09 07:07:59;;;;;;;0.25;0.25;;;;;;;29.11;38.42;99863.84;7396262;19;20037;-83
2023/08/09 07:10:25;;;;;;;1.20;1.08;;;;;;;29.81;38.35;99859.66;7391459;19;20512;-83
2023/08/09 07:12:52;;;;;;;1.90;0.57;;;;;;;29.88;37.93;99864.47;7392368;19;20018;-83
2023/08/09 07:15:18;;;;;;;2.58;0.70;;;;;;;28.66;39.77;99866.84;7393088;19;20011;-84
2023/08/09 07:17:44;;;;;;;2.55;0.80;;;;;;;28.22;40.33;99867.06;7392426;19;20014;-84
2023/08/09 07:20:11;;;;;;;5.35;0.65;;;;;;;29.38;39.61;99869.41;7394645;19;20338;-83
2023/08/09 07:22:41;;;;;;;2.35;0.60;;;;;;;33.09;35.23;99867.97;7392496;19;20021;-83
2023/08/09 07:25:09;;;;;;;0.85;0.82;;;;;;;28.52;40.17;99873.00;7394049;19;20038;-84
2023/08/09 07:27:43;;;;;;;1.38;0.30;;;;;;;28.46;41.43;99871.78;7391663;19;20086;-84
2023/08/09 07:30:11;;;;;;;1.02;0.65;;;;;;;27.34;42.58;99872.16;7392415;19;20038;-85
2023/08/09 07:32:38;;;;;;;1.33;0.40;;;;;;;26.15;45.92;99879.34;7394926;19;20056;-85
2023/08/09 07:35:05;;;;;;;0.52;0.52;;;;;;;25.81;47.23;99890.63;7391814;19;20018;-86
2023/08/09 07:37:34;;;;;;;1.35;1.10;;;;;;;26.67;47.74;99880.19;7395496;19;20022;-86
2023/08/09 07:40:00;;;;;;;9.38;0.95;;;;;;;26.99;47.30;99883.66;7391011;19;20417;-84
2023/08/09 07:42:26;;;;;;;2.95;0.80;;;;;;;27.08;48.17;99881.47;7388655;19;20047;-83
2023/08/09 07:44:53;;;;;;;0.60;0.60;;;;;;;27.91;47.32;99878.22;7393438;19;20014;-84
2023/08/09 07:47:19;;;;;;;1.25;0.63;;;;;;;29.19;45.18;99889.53;7392569;19;20037;-85
2023/08/09 07:49:45;;;;;;;3.83;0.60;;;;;;;26.86;49.55;99892.56;7391451;19;20025;-84
2023/08/09 07:52:11;;;;;;;3.30;0.73;;;;;;;25.80;53.53;99897.66;7389315;19;20555;-86
2023/08/09 07:54:37;;;;;;;0.45;0.45;;;;;;;26.29;56.48;99903.41;7389505;19;20078;-84
2023/08/09 07:57:04;;;;;;;0.25;0.25;;;;;;;26.50;58.16;99892.38;7393826;19;20073;-83
2023/08/09 07:59:30;;;;;;;1.08;0.90;;;;;;;26.41;57.14;99892.25;7392136;19;20022;-84
2023/08/09 08:01:56;;;;;;;1.35;0.90;;;;;;;26.43;58.80;99898.91;7393092;19;20376;-84
2023/08/09 08:04:22;;;;;;;0.30;0.30;;;;;;;26.82;61.24;99912.25;7390400;19;20346;-84
2023/08/09 08:06:48;;;;;;;0.60;0.57;;;;;;;27.28;59.02;99900.28;7392540;19;20033;-84
2023/08/09 08:09:16;;;;;;;0.82;0.20;;;;;;;26.97;61.32;99903.50;7393399;19;20002;-83
2023/08/09 08:11:43;;;;;;;0.10;0.10;;;;;;;26.08;65.38;99906.63;7388768;19;20591;-83
2023/08/09 08:14:09;;;;;;;3.10;0.65;;;;;;;26.24;67.49;99908.03;7387198;19;20034;-83
2023/08/09 08:16:36;;;;;;;0.30;0.30;;;;;;;26.63;65.20;99902.72;7389616;19;20018;-83
2023/08/09 08:19:02;;;;;;;0.50;0.50;;;;;;;29.66;57.53;99888.69;7391670;19;20014;-83
2023/08/09 08:21:29;;;;;;;0.68;0.30;;;;;;;28.64;55.56;99898.22;7388194;19;20014;-83
2023/08/09 08:23:59;;;;;;;0.38;0.10;;;;;;;27.20;59.43;99897.50;7390173;19;20049;-83
2023/08/09 08:26:26;;;;;;;0.10;0.10;;;;;;;27.44;59.22;99898.78;7393369;19;20018;-82
2023/08/09 08:28:53;;;;;;;0.13;0.03;;;;;;;27.29;59.60;99916.09;7392620;19;20037;-83
2023/08/09 08:31:22;;;;;;;0.10;0.00;;;;;;;27.37;60.04;99922.50;7394648;19;20334;-83
2023/08/09 08:33:49;;;;;;;0.10;0.10;;;;;;;27.13;62.29;99940.50;7395339;19;20019;-83
2023/08/09 08:36:19;;;;;;;0.10;0.10;;;;;;;27.96;59.52;99942.31;7397270;19;20010;-84
2023/08/09 08:38:45;;;;;;;0.10;0.00;;;;;;;28.31;59.76;99940.81;7401757;19;20078;-83
2023/08/09 08:41:11;;;;;;;1.27;0.35;;;;;;;28.42;59.32;99938.13;7397010;19;20083;-84
2023/08/09 08:43:38;;;;;;;0.10;0.10;;;;;;;28.70;58.37;99950.28;7396077;19;20045;-84
2023/08/09 08:46:04;;;;;;;0.40;0.10;;;;;;;29.01;57.26;99954.13;7392250;19;20030;-83
2023/08/09 08:48:33;;;;;;;2.33;0.70;;;;;;;29.39;55.29;99959.13;7397760;19;20362;-84
2023/08/09 08:51:04;;;;;;;0.90;0.10;;;;;;;29.96;52.61;99956.94;7397892;19;20025;-83
2023/08/09 08:53:32;;;;;;;0.20;0.10;;;;;;;30.87;50.53;99954.72;7393741;19;20034;-83
2023/08/09 08:55:58;;;;;;;0.17;0.17;;;;;;;30.97;50.08;99964.03;7398763;19;20369;-82
2023/08/09 08:58:24;;;;;;;2.97;0.32;;;;;;;31.33;48.94;99972.25;7397342;19;20018;-83
2023/08/09 09:00:50;;;;;;;0.20;0.10;;;;;;;30.63;48.23;99962.41;7395977;19;20018;-83
2023/08/09 09:03:17;;;;;;;0.30;0.20;;;;;;;31.66;46.46;99962.88;7395875;19;20006;-83
2023/08/09 09:05:43;;;;;;;0.95;0.75;;;;;;;31.92;47.25;99959.53;7395645;19;20006;-83
2023/08/09 09:08:13;;;;;;;0.10;0.10;;;;;;;30.33;48.52;99971.03;7397760;19;20533;-83
2023/08/09 09:10:43;;;;;;;0.10;0.00;;;;;;;29.83;50.22;99957.41;7397449;19;20015;-83
2023/08/09 09:13:21;;;;;;;;;;;;;;;30.12;51.44;99965.97;7396231;19;20622;-83
2023/08/09 09:15:47;;;;;;;0.80;0.28;;;;;;;31.28;48.87;99958.94;7394655;19;19974;-82
2023/08/09 09:18:15;;;;;;;0.10;0.10;;;;;;;31.20;48.90;99974.91;7389068;19;20014;-83
2023/08/09 09:20:41;;;;;;;0.10;0.10;;;;;;;31.46;49.05;99968.06;7394718;19;20014;-83
2023/08/09 09:23:07;;;;;;;0.80;0.15;;;;;;;33.74;43.41;99959.81;7392859;19;20038;-83
2023/08/09 09:25:34;;;;;;;0.10;0.10;;;;;;;33.84;44.00;99954.59;7394200;19;20029;-83
2023/08/09 09:28:00;;;;;;;1.55;0.20;;;;;;;34.52;44.17;99956.91;7394549;19;20425;-83
2023/08/09 09:30:31;;;;;;;0.20;0.10;;;;;;;35.39;40.99;99945.53;7393519;19;20074;-83
2023/08/09 09:32:59;;;;;;;0.85;0.17;;;;;;;36.38;39.49;99945.25;7396184;19;20504;-84
2023/08/09 09:35:27;;;;;;;0.80;0.30;;;;;;;33.46;43.58;99949.50;7392625;19;20117;-83
2023/08/09 09:38:04;;;;;;;0.10;0.00;;;;;;;33.92;43.52;99955.03;7395869;19;20014;-83
2023/08/09 09:40:33;;;;;;;1.08;0.30;;;;;;;35.46;40.70;99953.13;7396172;19;20366;-83
2023/08/09 09:43:01;;;;;;;1.10;0.20;;;;;;;35.83;39.80;99954.91;7394514;19;20042;-83
2023/08/09 09:45:29;;;;;;;0.77;0.10;;;;;;;35.84;40.85;99944.81;7392190;19;20014;-83
2023/08/09 09:47:58;;;;;;;0.85;0.10;;;;;;;36.46;39.09;99956.50;7393844;19;20018;-83
2023/08/09 09:50:27;;;;;;;1.30;0.32;;;;;;;37.07;37.40;99949.06;7393446;19;20461;-83
2023/08/09 09:52:54;;;;;;;0.85;0.15;;;;;;;38.63;35.81;99944.41;7394702;19;20010;-86
2023/08/09 09:55:26;;;;;;;0.20;0.20;;;;;;;37.62;36.12;99960.09;7394169;19;20006;-84
2023/08/09 09:57:54;;;;;;;0.10;0.10;;;;;;;35.81;38.90;99958.47;7395871;19;20512;-83
2023/08/09 10:00:20;;;;;;;3.28;0.43;;;;;;;36.07;38.78;99953.19;7395849;19;20047;-82
2023/08/09 10:02:48;;;;;;;0.60;0.50;;;;;;;37.87;37.17;99945.13;7391921;19;20014;-82
2023/08/09 10:05:19;;;;;;;1.20;0.20;;;;;;;38.57;35.42;99944.91;7392810;19;20416;-82
2023/08/09 10:07:46;;;;;;;0.50;0.20;;;;;;;37.11;36.83;99957.19;7397259;19;20018;-82
2023/08/09 10:10:13;;;;;;;1.65;0.45;;;;;;;36.77;37.63;99955.69;7394551;19;20031;-82
2023/08/09 10:13:01;;;;;;;0.22;0.10;;;;;;;36.34;37.48;99958.81;7392244;19;20022;-82
2023/08/09 10:15:34;;;;;;;0.47;0.20;;;;;;;35.30;39.07;99963.91;7394961;19;20477;-82
2023/08/09 10:18:15;;;;;;;0.10;0.00;;;;;;;35.83;38.46;99966.50;7392591;19;20016;-82
2023/08/09 10:20:46;;;;;;;0.10;0.10;;;;;;;36.34;37.89;99961.72;7395429;19;20051;-82
2023/08/09 10:23:19;;;;;;;;;;;;;;;40.66;34.63;99959.06;7394553;19;20015;-82
2023/08/09 10:25:47;;;;;;;0.35;0.10;;;;;;;38.47;35.76;99962.00;7393646;19;20002;-82
2023/08/09 10:28:13;;;;;;;1.42;0.08;;;;;;;36.45;37.84;99960.81;7393258;19;20018;-82
2023/08/09 10:30:48;;;;;;;0.20;0.20;;;;;;;37.40;37.44;99967.88;7393813;19;20026;-82
2023/08/09 10:33:18;;;;;;;0.10;0.10;;;;;;;35.68;40.25;99973.78;7392506;19;20014;-82
2023/08/09 10:35:45;;;;;;;;;;;;;;;35.77;39.61;99976.44;7393974;19;20022;-83
2023/08/09 10:38:29;;;;;;;0.10;0.10;;;;;;;34.92;39.84;99973.50;7397643;19;19918;-83
2023/08/09 10:40:56;;;;;;;0.65;0.10;;;;;;;36.03;39.80;99970.41;7393740;19;20021;-83
2023/08/09 10:43:24;;;;;;;0.10;0.00;;;;;;;34.97;40.07;99970.19;7392521;19;20018;-82
2023/08/09 10:45:54;;;;;;;0.10;0.00;;;;;;;35.67;39.54;99967.22;7390807;19;20018;-84
2023/08/09 10:48:28;;;;;;;0.20;0.00;;;;;;;34.96;41.82;99967.91;7390685;19;20108;-83
2023/08/09 10:51:06;;;;;;;0.40;0.32;;;;;;;35.71;41.85;99966.69;7391150;19;20006;-83
2023/08/09 10:53:51;;;;;;;0.10;0.10;;;;;;;37.27;39.47;99954.25;7391376;19;20014;-83
2023/08/09 10:56:29;;;;;;;0.68;0.17;;;;;;;36.52;40.90;99967.63;7396847;19;20480;-83
2023/08/09 10:58:55;;;;;;;8.30;0.30;;;;;;;36.49;40.40;99975.50;7393950;19;20654;-81
2023/08/09 11:01:25;;;;;;;0.10;0.00;;;;;;;36.89;38.12;99980.22;7391808;19;20092;-81
2023/08/09 11:03:53;;;;;;;0.38;0.10;;;;;;;37.70;38.24;99974.94;7392890;19;20365;-92
2023/08/09 11:06:40;;;;;;;0.65;0.20;;;;;;;38.60;36.74;99966.88;7392880;19;20018;-80
2023/08/09 11:09:11;;;;;;;2.92;0.20;;;;;;;36.92;39.05;99961.50;7395904;19;20387;-80
2023/08/09 11:11:38;;;;;;;;;;;;;;;35.82;41.70;99959.97;7391640;19;20451;-81
2023/08/09 11:14:05;;;;;;;0.13;0.03;;;;;;;36.32;41.18;99970.34;7389562;19;19915;-81
2023/08/09 11:16:31;;;;;;;0.90;0.20;;;;;;;36.90;39.78;99964.31;7392582;19;20017;-81
2023/08/09 11:19:09;;;;;;;0.45;0.28;;;;;;;37.22;38.98;99970.75;7391864;19;20017;-81
2023/08/09 11:21:42;;;;;;;0.10;0.00;;;;;;;37.09;37.92;99978.19;7391808;19;20026;-81
2023/08/09 11:24:14;;;;;;;0.10;0.10;;;;;;;37.64;37.92;99981.25;7388484;19;20010;-82
2023/08/09 11:30:38;;;;;;;0.10;0.10;;;;;;;38.94;37.26;99975.38;7394563;19;20017;-81
2023/08/09 11:33:11;;;;;;;0.77;0.08;;;;;;;39.83;35.67;99962.41;7396298;19;20018;-85
2023/08/09 11:35:43;;;;;;;2.15;0.10;;;;;;;39.65;34.97;99964.75;7393776;19;20034;-90
2023/08/09 11:38:15;;;;;;;0.43;0.10;;;;;;;37.20;36.82;99965.59;7402919;19;20014;-92
2023/08/09 11:40:59;;;;;;;0.38;0.17;;;;;;;36.51;39.21;99975.59;7400902;19;20041;-94